createdAt,value
2018-07-21T00:00:48.290Z,0.00
2018-07-21T00:01:47.852Z,0.00
2018-07-21T00:02:48.728Z,0.00
2018-07-21T00:03:50.667Z,0.00
2018-07-21T00:04:48.347Z,0.00
2018-07-21T00:05:48.339Z,0.00
2018-07-21T00:06:49.312Z,0.00
2018-07-21T00:07:48.687Z,0.00
2018-07-21T00:08:48.376Z,0.00
2018-07-21T00:09:48.304Z,0.00
2018-07-21T00:10:48.842Z,0.00
2018-07-21T00:11:48.326Z,0.00
2018-07-21T00:12:48.827Z,0.00
2018-07-21T00:13:49.378Z,0.00
2018-07-21T00:14:49.309Z,0.00
2018-07-21T00:15:48.854Z,0.00
2018-07-21T00:16:47.553Z,0.00
2018-07-21T00:17:48.867Z,0.00
2018-07-21T00:18:48.724Z,0.00
2018-07-21T00:19:48.301Z,0.00
2018-07-21T00:20:48.782Z,0.00
2018-07-21T00:21:48.272Z,0.00
2018-07-21T00:22:47.472Z,0.00
2018-07-21T00:23:48.845Z,0.00
2018-07-21T00:24:48.793Z,0.00
2018-07-21T00:25:48.301Z,0.00
2018-07-21T00:26:48.237Z,0.00
2018-07-21T00:27:47.490Z,0.00
2018-07-21T00:28:47.105Z,0.00
2018-07-21T00:29:47.105Z,0.00
2018-07-21T00:30:47.107Z,0.00
2018-07-21T00:31:47.118Z,0.00
2018-07-21T00:32:47.113Z,0.00
2018-07-21T00:33:47.115Z,0.00
2018-07-21T00:34:47.120Z,0.00
2018-07-21T00:35:47.122Z,0.00
2018-07-21T00:36:47.125Z,0.00
2018-07-21T00:37:47.127Z,0.00
2018-07-21T00:38:47.129Z,0.00
2018-07-21T00:39:47.132Z,0.00
2018-07-21T00:40:47.136Z,0.00
2018-07-21T00:41:47.139Z,0.00
2018-07-21T00:42:47.140Z,0.00
2018-07-21T00:43:47.144Z,0.00
2018-07-21T00:44:47.149Z,0.00
2018-07-21T00:45:47.152Z,0.00
2018-07-21T00:46:47.159Z,0.00
2018-07-21T00:47:47.156Z,0.00
2018-07-21T00:48:47.158Z,0.00
2018-07-21T00:49:47.160Z,0.00
2018-07-21T00:50:47.550Z,0.00
2018-07-21T00:51:47.167Z,0.00
2018-07-21T00:52:47.169Z,0.00
2018-07-21T00:53:47.175Z,0.00
2018-07-21T00:54:47.188Z,0.00
2018-07-21T00:55:47.178Z,0.00
2018-07-21T00:56:47.182Z,0.00
2018-07-21T00:57:47.186Z,0.00
2018-07-21T00:58:47.187Z,0.00
2018-07-21T00:59:47.192Z,0.00
2018-07-21T01:00:47.196Z,0.00
2018-07-21T01:01:47.199Z,0.00
2018-07-21T01:02:47.197Z,0.00
2018-07-21T01:03:47.200Z,0.00
2018-07-21T01:04:47.204Z,0.00
2018-07-21T01:05:47.206Z,0.00
2018-07-21T01:06:47.218Z,0.00
2018-07-21T01:07:47.211Z,0.00
2018-07-21T01:08:47.214Z,0.00
2018-07-21T01:09:47.235Z,0.00
2018-07-21T01:10:47.220Z,0.00
2018-07-21T01:11:47.232Z,0.00
2018-07-21T01:12:47.227Z,0.00
2018-07-21T01:13:47.228Z,0.00
2018-07-21T01:14:47.235Z,0.00
2018-07-21T01:15:47.233Z,0.00
2018-07-21T01:16:47.237Z,0.00
2018-07-21T01:17:47.241Z,0.00
2018-07-21T01:18:47.241Z,0.00
2018-07-21T01:19:47.245Z,0.00
2018-07-21T01:20:47.250Z,0.00
2018-07-21T01:21:48.043Z,0.00
2018-07-21T01:22:47.252Z,0.00
2018-07-21T01:23:47.255Z,0.00
2018-07-21T01:24:47.259Z,0.00
2018-07-21T01:25:47.282Z,0.00
2018-07-21T01:26:47.263Z,0.00
2018-07-21T01:27:47.266Z,0.00
2018-07-21T01:28:47.270Z,0.00
2018-07-21T01:29:47.276Z,0.00
2018-07-21T01:30:47.277Z,0.00
2018-07-21T01:31:47.277Z,0.00
2018-07-21T01:32:47.281Z,0.00
2018-07-21T01:33:47.284Z,0.00
2018-07-21T01:34:47.284Z,0.00
2018-07-21T01:35:47.289Z,0.00
2018-07-21T01:36:47.294Z,0.00
2018-07-21T01:37:47.296Z,0.00
2018-07-21T01:38:47.295Z,0.00
2018-07-21T01:39:47.298Z,0.00
2018-07-21T01:40:47.301Z,0.00
2018-07-21T01:41:47.305Z,0.00
2018-07-21T01:42:47.306Z,0.00
2018-07-21T01:43:47.307Z,0.00
2018-07-21T01:44:47.312Z,0.00
2018-07-21T01:45:47.316Z,0.00
2018-07-21T01:46:47.315Z,0.00
2018-07-21T01:47:47.320Z,0.00
2018-07-21T01:48:47.324Z,0.00
2018-07-21T01:49:47.329Z,0.00
2018-07-21T01:50:47.350Z,0.00
2018-07-21T01:51:47.330Z,0.00
2018-07-21T01:52:47.331Z,0.00
2018-07-21T01:53:47.339Z,0.00
2018-07-21T01:54:47.335Z,0.00
2018-07-21T01:55:47.338Z,0.00
2018-07-21T01:56:47.343Z,0.00
2018-07-21T01:57:47.351Z,0.00
2018-07-21T01:58:47.345Z,0.00
2018-07-21T01:59:47.358Z,0.00
2018-07-21T02:00:47.351Z,0.00
2018-07-21T02:01:47.357Z,0.00
2018-07-21T02:02:47.357Z,0.00
2018-07-21T02:03:47.360Z,0.00
2018-07-21T02:04:47.365Z,0.00
2018-07-21T02:05:47.364Z,0.00
2018-07-21T02:06:47.366Z,0.00
2018-07-21T02:07:47.368Z,0.00
2018-07-21T02:08:47.372Z,0.00
2018-07-21T02:09:47.374Z,0.00
2018-07-21T02:10:47.375Z,0.00
2018-07-21T02:11:47.381Z,0.00
2018-07-21T02:12:47.421Z,0.00
2018-07-21T02:13:47.385Z,0.00
2018-07-21T02:14:47.386Z,0.00
2018-07-21T02:15:47.390Z,0.00
2018-07-21T02:16:47.394Z,0.00
2018-07-21T02:17:47.397Z,0.00
2018-07-21T02:18:47.397Z,0.00
2018-07-21T02:19:47.403Z,0.00
2018-07-21T02:20:47.404Z,0.00
2018-07-21T02:21:47.406Z,0.00
2018-07-21T02:22:47.410Z,0.00
2018-07-21T02:23:47.453Z,0.00
2018-07-21T02:24:47.443Z,0.00
2018-07-21T02:25:47.417Z,0.00
2018-07-21T02:26:47.423Z,0.00
2018-07-21T02:27:47.422Z,0.00
2018-07-21T02:28:47.426Z,0.00
2018-07-21T02:29:47.434Z,0.00
2018-07-21T02:30:47.430Z,0.00
2018-07-21T02:31:47.432Z,0.00
2018-07-21T02:32:47.437Z,0.00
2018-07-21T02:33:47.438Z,0.00
2018-07-21T02:34:47.445Z,0.00
2018-07-21T02:35:47.443Z,0.00
2018-07-21T02:36:47.448Z,0.00
2018-07-21T02:37:47.450Z,0.00
2018-07-21T02:38:47.452Z,0.00
2018-07-21T02:39:47.453Z,0.00
2018-07-21T02:40:47.457Z,0.00
2018-07-21T02:41:47.466Z,0.00
2018-07-21T02:42:47.461Z,0.00
2018-07-21T02:43:47.465Z,0.00
2018-07-21T02:44:47.476Z,0.00
2018-07-21T02:45:47.576Z,0.00
2018-07-21T02:46:47.476Z,0.00
2018-07-21T02:47:47.475Z,0.00
2018-07-21T02:48:47.479Z,0.00
2018-07-21T02:49:47.481Z,0.00
2018-07-21T02:50:47.491Z,0.00
2018-07-21T02:51:47.486Z,0.00
2018-07-21T02:52:47.494Z,0.00
2018-07-21T02:53:47.493Z,0.00
2018-07-21T02:54:47.497Z,0.00
2018-07-21T02:55:47.497Z,0.00
2018-07-21T02:56:47.508Z,0.00
2018-07-21T02:57:47.503Z,0.00
2018-07-21T02:58:47.506Z,0.00
2018-07-21T02:59:47.509Z,0.00
2018-07-21T03:00:47.511Z,0.00
2018-07-21T03:01:47.515Z,0.00
2018-07-21T03:02:47.520Z,0.00
2018-07-21T03:03:47.519Z,0.00
2018-07-21T03:04:47.523Z,0.00
2018-07-21T03:05:47.526Z,0.00
2018-07-21T03:06:47.527Z,0.00
2018-07-21T03:07:47.533Z,0.00
2018-07-21T03:08:47.538Z,0.00
2018-07-21T03:09:47.536Z,0.00
2018-07-21T03:10:47.540Z,0.00
2018-07-21T03:11:47.542Z,0.00
2018-07-21T03:12:47.545Z,0.00
2018-07-21T03:13:47.547Z,0.00
2018-07-21T03:14:47.551Z,0.00
2018-07-21T03:15:47.553Z,0.00
2018-07-21T03:16:47.556Z,0.00
2018-07-21T03:17:47.558Z,0.00
2018-07-21T03:18:47.562Z,0.00
2018-07-21T03:19:47.562Z,0.00
2018-07-21T03:20:47.570Z,0.00
2018-07-21T03:21:47.572Z,0.00
2018-07-21T03:22:47.573Z,0.00
2018-07-21T03:23:47.575Z,0.00
2018-07-21T03:24:47.685Z,0.00
2018-07-21T03:25:47.579Z,0.00
2018-07-21T03:26:47.581Z,0.00
2018-07-21T03:27:47.587Z,0.00
2018-07-21T03:28:47.634Z,0.00
2018-07-21T03:29:47.604Z,0.00
2018-07-21T03:30:47.612Z,0.00
2018-07-21T03:31:47.599Z,0.00
2018-07-21T03:32:47.607Z,0.00
2018-07-21T03:33:47.600Z,0.00
2018-07-21T03:34:47.601Z,0.00
2018-07-21T03:35:47.607Z,5.63
2018-07-21T03:36:47.609Z,5.63
2018-07-21T03:37:47.611Z,5.63
2018-07-21T03:38:47.615Z,5.63
2018-07-21T03:39:47.615Z,5.63
2018-07-21T03:40:47.624Z,5.63
2018-07-21T03:41:47.621Z,5.63
2018-07-21T03:42:47.624Z,5.63
2018-07-21T03:43:47.625Z,5.63
2018-07-21T03:44:47.631Z,5.63
2018-07-21T03:45:47.632Z,5.63
2018-07-21T03:46:47.634Z,5.63
2018-07-21T03:47:47.640Z,5.63
2018-07-21T03:48:47.640Z,5.63
2018-07-21T03:49:47.643Z,5.63
2018-07-21T03:50:47.645Z,5.63
2018-07-21T03:51:47.646Z,5.63
2018-07-21T03:52:47.656Z,5.63
2018-07-21T03:53:47.654Z,5.63
2018-07-21T03:54:47.655Z,5.63
2018-07-21T03:55:48.092Z,5.63
2018-07-21T03:56:47.662Z,5.63
2018-07-21T03:57:47.663Z,5.63
2018-07-21T03:58:47.667Z,11.25
2018-07-21T03:59:47.669Z,11.25
2018-07-21T04:00:47.674Z,11.25
2018-07-21T04:01:47.677Z,11.25
2018-07-21T04:02:47.678Z,11.25
2018-07-21T04:03:47.680Z,11.25
2018-07-21T04:04:47.682Z,11.25
2018-07-21T04:05:47.685Z,11.25
2018-07-21T04:06:47.688Z,11.25
2018-07-21T04:07:47.721Z,11.25
2018-07-21T04:08:47.753Z,11.25
2018-07-21T04:09:47.696Z,11.25
2018-07-21T04:10:47.698Z,11.25
2018-07-21T04:11:47.702Z,11.25
2018-07-21T04:12:47.708Z,11.25
2018-07-21T04:13:47.706Z,16.88
2018-07-21T04:14:47.713Z,16.88
2018-07-21T04:15:47.712Z,16.88
2018-07-21T04:16:47.726Z,16.88
2018-07-21T04:17:47.720Z,16.88
2018-07-21T04:18:47.723Z,22.50
2018-07-21T04:19:47.724Z,22.50
2018-07-21T04:20:47.728Z,22.50
2018-07-21T04:21:47.730Z,22.50
2018-07-21T04:22:47.732Z,22.50
2018-07-21T04:23:47.736Z,22.50
2018-07-21T04:24:47.739Z,22.50
2018-07-21T04:25:47.740Z,22.50
2018-07-21T04:26:48.468Z,22.50
2018-07-21T04:27:47.751Z,28.13
2018-07-21T04:28:47.752Z,28.13
2018-07-21T04:29:47.758Z,28.13
2018-07-21T04:30:47.755Z,28.13
2018-07-21T04:31:47.757Z,33.75
2018-07-21T04:32:47.761Z,33.75
2018-07-21T04:33:47.762Z,39.38
2018-07-21T04:34:47.767Z,39.38
2018-07-21T04:35:47.772Z,39.38
2018-07-21T04:36:47.771Z,45.00
2018-07-21T04:37:47.775Z,45.00
2018-07-21T04:38:47.776Z,50.63
2018-07-21T04:39:47.778Z,50.63
2018-07-21T04:40:47.782Z,50.63
2018-07-21T04:41:47.783Z,56.25
2018-07-21T04:42:47.785Z,56.25
2018-07-21T04:43:47.787Z,56.25
2018-07-21T04:44:47.790Z,56.25
2018-07-21T04:45:47.796Z,56.25
2018-07-21T04:46:47.795Z,56.25
2018-07-21T04:47:47.798Z,61.88
2018-07-21T04:48:47.800Z,61.88
2018-07-21T04:49:47.809Z,67.50
2018-07-21T04:50:47.816Z,67.50
2018-07-21T04:51:47.809Z,67.50
2018-07-21T04:52:47.811Z,67.50
2018-07-21T04:53:47.820Z,67.50
2018-07-21T04:54:47.816Z,67.50
2018-07-21T04:55:47.822Z,61.88
2018-07-21T04:56:47.821Z,67.50
2018-07-21T04:57:47.826Z,67.50
2018-07-21T04:58:47.827Z,61.88
2018-07-21T04:59:47.829Z,56.25
2018-07-21T05:00:47.874Z,56.25
2018-07-21T05:01:47.835Z,61.88
2018-07-21T05:02:47.839Z,61.88
2018-07-21T05:03:47.840Z,67.50
2018-07-21T05:04:47.844Z,73.13
2018-07-21T05:05:47.846Z,67.50
2018-07-21T05:06:47.856Z,67.50
2018-07-21T05:07:47.851Z,73.13
2018-07-21T05:08:47.857Z,73.13
2018-07-21T05:09:47.860Z,78.75
2018-07-21T05:10:47.860Z,106.88
2018-07-21T05:11:47.862Z,112.50
2018-07-21T05:12:47.865Z,118.13
2018-07-21T05:13:47.884Z,123.75
2018-07-21T05:14:47.871Z,135.00
2018-07-21T05:15:47.873Z,140.63
2018-07-21T05:16:47.875Z,180.00
2018-07-21T05:17:47.879Z,208.13
2018-07-21T05:18:47.883Z,163.13
2018-07-21T05:19:47.883Z,146.25
2018-07-21T05:20:47.931Z,151.88
2018-07-21T05:21:47.891Z,157.50
2018-07-21T05:22:47.897Z,157.50
2018-07-21T05:23:47.895Z,163.13
2018-07-21T05:24:47.900Z,185.63
2018-07-21T05:25:47.911Z,225.00
2018-07-21T05:26:47.906Z,275.63
2018-07-21T05:27:47.909Z,416.25
2018-07-21T05:28:47.913Z,416.25
2018-07-21T05:29:47.920Z,264.38
2018-07-21T05:30:47.920Z,230.63
2018-07-21T05:31:47.922Z,219.38
2018-07-21T05:32:47.927Z,202.50
2018-07-21T05:33:47.935Z,196.88
2018-07-21T05:34:47.933Z,258.75
2018-07-21T05:35:47.944Z,309.38
2018-07-21T05:36:47.951Z,292.50
2018-07-21T05:37:47.947Z,275.63
2018-07-21T05:38:47.949Z,292.50
2018-07-21T05:39:47.955Z,270.00
2018-07-21T05:40:47.958Z,225.00
2018-07-21T05:41:47.964Z,202.50
2018-07-21T05:42:48.011Z,191.25
2018-07-21T05:43:47.974Z,196.88
2018-07-21T05:44:47.976Z,202.50
2018-07-21T05:45:47.982Z,202.50
2018-07-21T05:46:47.986Z,208.13
2018-07-21T05:47:47.988Z,208.13
2018-07-21T05:48:47.993Z,208.13
2018-07-21T05:49:48.002Z,208.13
2018-07-21T05:50:48.003Z,191.25
2018-07-21T05:51:48.010Z,191.25
2018-07-21T05:52:48.012Z,208.13
2018-07-21T05:53:48.018Z,202.50
2018-07-21T05:54:48.019Z,208.13
2018-07-21T05:55:48.023Z,202.50
2018-07-21T05:56:48.029Z,202.50
2018-07-21T05:57:48.032Z,202.50
2018-07-21T05:58:48.036Z,230.63
2018-07-21T05:59:48.040Z,264.38
2018-07-21T06:00:48.061Z,258.75
2018-07-21T06:01:48.051Z,230.63
2018-07-21T06:02:48.108Z,208.13
2018-07-21T06:03:48.062Z,185.63
2018-07-21T06:04:48.066Z,208.13
2018-07-21T06:05:48.065Z,213.75
2018-07-21T06:06:48.069Z,185.63
2018-07-21T06:07:48.076Z,157.50
2018-07-21T06:08:48.078Z,135.00
2018-07-21T06:09:48.083Z,140.63
2018-07-21T06:10:48.085Z,146.25
2018-07-21T06:11:48.094Z,146.25
2018-07-21T06:12:48.095Z,151.88
2018-07-21T06:13:48.102Z,151.88
2018-07-21T06:14:48.102Z,146.25
2018-07-21T06:15:48.109Z,163.13
2018-07-21T06:16:48.139Z,163.13
2018-07-21T06:17:48.115Z,168.75
2018-07-21T06:18:48.172Z,168.75
2018-07-21T06:19:48.126Z,174.38
2018-07-21T06:20:48.130Z,174.38
2018-07-21T06:21:48.140Z,174.38
2018-07-21T06:22:48.142Z,163.13
2018-07-21T06:23:48.161Z,168.75
2018-07-21T06:24:48.145Z,168.75
2018-07-21T06:25:48.150Z,168.75
2018-07-21T06:26:48.154Z,163.13
2018-07-21T06:27:48.159Z,168.75
2018-07-21T06:28:48.187Z,157.50
2018-07-21T06:29:48.168Z,163.13
2018-07-21T06:30:48.176Z,168.75
2018-07-21T06:31:48.175Z,168.75
2018-07-21T06:32:48.182Z,174.38
2018-07-21T06:33:48.184Z,180.00
2018-07-21T06:34:48.187Z,180.00
2018-07-21T06:35:48.197Z,174.38
2018-07-21T06:36:48.196Z,174.38
2018-07-21T06:37:48.200Z,174.38
2018-07-21T06:38:48.206Z,174.38
2018-07-21T06:39:48.210Z,174.38
2018-07-21T06:40:48.216Z,174.38
2018-07-21T06:41:48.219Z,168.75
2018-07-21T06:42:48.221Z,168.75
2018-07-21T06:43:48.285Z,168.75
2018-07-21T06:44:48.231Z,174.38
2018-07-21T06:45:48.236Z,174.38
2018-07-21T06:46:48.241Z,174.38
2018-07-21T06:47:48.245Z,174.38
2018-07-21T06:48:48.256Z,180.00
2018-07-21T06:49:48.260Z,180.00
2018-07-21T06:50:48.256Z,174.38
2018-07-21T06:51:48.260Z,168.75
2018-07-21T06:52:48.265Z,168.75
2018-07-21T06:53:48.271Z,168.75
2018-07-21T06:54:48.275Z,163.13
2018-07-21T06:55:48.279Z,163.13
2018-07-21T06:56:48.284Z,157.50
2018-07-21T06:57:48.292Z,163.13
2018-07-21T06:58:48.296Z,163.13
2018-07-21T06:59:48.298Z,157.50
2018-07-21T07:00:48.378Z,157.50
2018-07-21T07:01:48.314Z,157.50
2018-07-21T07:02:48.312Z,163.13
2018-07-21T07:03:48.317Z,157.50
2018-07-21T07:04:48.329Z,157.50
2018-07-21T07:05:48.335Z,157.50
2018-07-21T07:06:48.329Z,157.50
2018-07-21T07:07:48.338Z,163.13
2018-07-21T07:08:48.343Z,163.13
2018-07-21T07:09:48.342Z,163.13
2018-07-21T07:10:48.346Z,157.50
2018-07-21T07:11:48.351Z,168.75
2018-07-21T07:12:48.356Z,163.13
2018-07-21T07:13:48.362Z,163.13
2018-07-21T07:14:48.366Z,157.50
2018-07-21T07:15:48.368Z,151.88
2018-07-21T07:16:48.377Z,146.25
2018-07-21T07:17:48.378Z,146.25
2018-07-21T07:18:48.383Z,140.63
2018-07-21T07:19:48.391Z,140.63
2018-07-21T07:20:48.393Z,140.63
2018-07-21T07:21:48.398Z,140.63
2018-07-21T07:22:48.400Z,146.25
2018-07-21T07:23:48.404Z,146.25
2018-07-21T07:24:48.410Z,146.25
2018-07-21T07:25:48.419Z,146.25
2018-07-21T07:26:48.418Z,140.63
2018-07-21T07:27:48.429Z,140.63
2018-07-21T07:28:48.429Z,135.00
2018-07-21T07:29:48.434Z,135.00
2018-07-21T07:30:48.439Z,135.00
2018-07-21T07:31:48.780Z,129.38
2018-07-21T07:32:48.447Z,123.75
2018-07-21T07:33:48.455Z,118.13
2018-07-21T07:34:48.458Z,118.13
2018-07-21T07:35:48.464Z,112.50
2018-07-21T07:36:48.478Z,106.88
2018-07-21T07:37:48.472Z,106.88
2018-07-21T07:38:48.477Z,101.25
2018-07-21T07:39:48.482Z,95.63
2018-07-21T07:40:48.489Z,95.63
2018-07-21T07:41:48.492Z,95.63
2018-07-21T07:42:48.498Z,90.00
2018-07-21T07:43:48.505Z,90.00
2018-07-21T07:44:48.508Z,90.00
2018-07-21T07:45:48.512Z,90.00
2018-07-21T07:46:48.516Z,95.63
2018-07-21T07:47:48.524Z,101.25
2018-07-21T07:48:48.527Z,101.25
2018-07-21T07:49:48.798Z,112.50
2018-07-21T07:50:48.537Z,118.13
2018-07-21T07:51:48.541Z,123.75
2018-07-21T07:52:48.554Z,123.75
2018-07-21T07:53:48.553Z,123.75
2018-07-21T07:54:48.562Z,123.75
2018-07-21T07:55:48.562Z,118.13
2018-07-21T07:56:48.583Z,118.13
2018-07-21T07:57:48.574Z,118.13
2018-07-21T07:58:48.579Z,118.13
2018-07-21T07:59:48.582Z,123.75
2018-07-21T08:00:48.587Z,123.75
2018-07-21T08:01:48.592Z,129.38
2018-07-21T08:02:49.179Z,129.38
2018-07-21T08:03:48.603Z,135.00
2018-07-21T08:04:48.607Z,135.00
2018-07-21T08:05:48.613Z,135.00
2018-07-21T08:06:48.616Z,140.63
2018-07-21T08:07:48.661Z,135.00
2018-07-21T08:08:48.630Z,140.63
2018-07-21T08:09:48.636Z,140.63
2018-07-21T08:10:48.638Z,140.63
2018-07-21T08:11:48.645Z,140.63
2018-07-21T08:12:48.651Z,140.63
2018-07-21T08:13:48.654Z,135.00
2018-07-21T08:14:48.676Z,129.38
2018-07-21T08:15:48.681Z,129.38
2018-07-21T08:16:48.670Z,129.38
2018-07-21T08:17:48.677Z,129.38
2018-07-21T08:18:48.679Z,129.38
2018-07-21T08:19:48.682Z,129.38
2018-07-21T08:20:48.691Z,135.00
2018-07-21T08:21:48.694Z,140.63
2018-07-21T08:22:48.697Z,146.25
2018-07-21T08:23:48.704Z,146.25
2018-07-21T08:24:48.712Z,151.88
2018-07-21T08:25:48.716Z,151.88
2018-07-21T08:26:48.719Z,146.25
2018-07-21T08:27:48.727Z,146.25
2018-07-21T08:28:48.731Z,146.25
2018-07-21T08:29:48.735Z,146.25
2018-07-21T08:30:48.741Z,151.88
2018-07-21T08:31:48.746Z,151.88
2018-07-21T08:32:48.753Z,151.88
2018-07-21T08:33:49.561Z,146.25
2018-07-21T08:34:48.762Z,146.25
2018-07-21T08:35:48.768Z,151.88
2018-07-21T08:36:48.774Z,151.88
2018-07-21T08:37:48.780Z,151.88
2018-07-21T08:38:48.788Z,146.25
2018-07-21T08:39:48.802Z,146.25
2018-07-21T08:40:48.795Z,140.63
2018-07-21T08:41:48.798Z,140.63
2018-07-21T08:42:48.806Z,140.63
2018-07-21T08:43:48.810Z,140.63
2018-07-21T08:44:48.817Z,140.63
2018-07-21T08:45:48.824Z,146.25
2018-07-21T08:46:48.829Z,140.63
2018-07-21T08:47:48.832Z,140.63
2018-07-21T08:48:48.838Z,135.00
2018-07-21T08:49:48.926Z,135.00
2018-07-21T08:50:48.848Z,135.00
2018-07-21T08:51:48.854Z,135.00
2018-07-21T08:52:48.862Z,135.00
2018-07-21T08:53:48.864Z,135.00
2018-07-21T08:54:48.869Z,135.00
2018-07-21T08:55:48.952Z,135.00
2018-07-21T08:56:48.912Z,129.38
2018-07-21T08:57:48.887Z,129.38
2018-07-21T08:58:48.897Z,129.38
2018-07-21T08:59:48.897Z,129.38
2018-07-21T09:00:48.904Z,129.38
2018-07-21T09:01:48.914Z,129.38
2018-07-21T09:02:48.915Z,129.38
2018-07-21T09:03:48.922Z,129.38
2018-07-21T09:04:48.926Z,123.75
2018-07-21T09:05:48.950Z,123.75
2018-07-21T09:06:48.936Z,123.75
2018-07-21T09:07:48.946Z,123.75
2018-07-21T09:08:48.949Z,123.75
2018-07-21T09:09:48.952Z,123.75
2018-07-21T09:10:48.961Z,129.38
2018-07-21T09:11:49.011Z,129.38
2018-07-21T09:12:48.970Z,129.38
2018-07-21T09:13:48.980Z,129.38
2018-07-21T09:14:48.979Z,129.38
2018-07-21T09:15:48.986Z,129.38
2018-07-21T09:16:48.994Z,129.38
2018-07-21T09:17:49.002Z,129.38
2018-07-21T09:18:49.007Z,129.38
2018-07-21T09:19:49.007Z,129.38
2018-07-21T09:20:49.014Z,135.00
2018-07-21T09:21:49.020Z,135.00
2018-07-21T09:22:49.050Z,140.63
2018-07-21T09:23:49.028Z,140.63
2018-07-21T09:24:49.040Z,146.25
2018-07-21T09:25:49.041Z,146.25
2018-07-21T09:26:49.054Z,151.88
2018-07-21T09:27:49.060Z,146.25
2018-07-21T09:28:49.056Z,146.25
2018-07-21T09:29:49.061Z,146.25
2018-07-21T09:30:49.075Z,146.25
2018-07-21T09:31:49.075Z,146.25
2018-07-21T09:32:49.079Z,146.25
2018-07-21T09:33:49.085Z,151.88
2018-07-21T09:34:49.090Z,151.88
2018-07-21T09:35:49.094Z,151.88
2018-07-21T09:36:49.103Z,151.88
2018-07-21T09:37:49.105Z,146.25
2018-07-21T09:38:49.118Z,146.25
2018-07-21T09:39:49.115Z,146.25
2018-07-21T09:40:49.135Z,140.63
2018-07-21T09:41:49.128Z,140.63
2018-07-21T09:42:49.131Z,135.00
2018-07-21T09:43:49.137Z,135.00
2018-07-21T09:44:49.143Z,135.00
2018-07-21T09:45:49.154Z,135.00
2018-07-21T09:46:49.153Z,135.00
2018-07-21T09:47:49.161Z,135.00
2018-07-21T09:48:49.164Z,135.00
2018-07-21T09:49:49.170Z,135.00
2018-07-21T09:50:49.177Z,135.00
2018-07-21T09:51:49.182Z,135.00
2018-07-21T09:52:49.198Z,135.00
2018-07-21T09:53:49.193Z,135.00
2018-07-21T09:54:49.207Z,129.38
2018-07-21T09:55:49.294Z,123.75
2018-07-21T09:56:49.216Z,118.13
2018-07-21T09:57:49.213Z,118.13
2018-07-21T09:58:49.223Z,118.13
2018-07-21T09:59:49.226Z,112.50
2018-07-21T10:00:49.231Z,112.50
2018-07-21T10:01:49.235Z,106.88
2018-07-21T10:02:49.242Z,106.88
2018-07-21T10:03:49.247Z,101.25
2018-07-21T10:04:49.254Z,101.25
2018-07-21T10:05:49.257Z,95.63
2018-07-21T10:06:49.261Z,95.63
2018-07-21T10:07:49.266Z,90.00
2018-07-21T10:08:49.272Z,90.00
2018-07-21T10:09:49.278Z,90.00
2018-07-21T10:10:49.293Z,90.00
2018-07-21T10:11:49.361Z,90.00
2018-07-21T10:12:49.294Z,84.38
2018-07-21T10:13:49.305Z,84.38
2018-07-21T10:14:49.305Z,84.38
2018-07-21T10:15:49.310Z,84.38
2018-07-21T10:16:49.315Z,90.00
2018-07-21T10:17:49.328Z,90.00
2018-07-21T10:18:49.325Z,95.63
2018-07-21T10:19:49.333Z,101.25
2018-07-21T10:20:49.350Z,106.88
2018-07-21T10:21:49.372Z,112.50
2018-07-21T10:22:49.347Z,112.50
2018-07-21T10:23:49.361Z,118.13
2018-07-21T10:24:49.358Z,118.13
2018-07-21T10:25:49.365Z,118.13
2018-07-21T10:26:49.369Z,118.13
2018-07-21T10:27:49.374Z,118.13
2018-07-21T10:28:49.383Z,129.38
2018-07-21T10:29:49.386Z,129.38
2018-07-21T10:30:49.396Z,123.75
2018-07-21T10:31:49.393Z,123.75
2018-07-21T10:32:49.400Z,123.75
2018-07-21T10:33:49.408Z,118.13
2018-07-21T10:34:49.411Z,118.13
2018-07-21T10:35:49.539Z,112.50
2018-07-21T10:36:49.430Z,112.50
2018-07-21T10:37:49.429Z,112.50
2018-07-21T10:38:49.433Z,112.50
2018-07-21T10:39:49.437Z,112.50
2018-07-21T10:40:49.443Z,112.50
2018-07-21T10:41:49.447Z,112.50
2018-07-21T10:42:49.456Z,112.50
2018-07-21T10:43:49.461Z,112.50
2018-07-21T10:44:49.467Z,112.50
2018-07-21T10:45:49.509Z,112.50
2018-07-21T10:46:49.474Z,112.50
2018-07-21T10:47:49.480Z,118.13
2018-07-21T10:48:49.485Z,118.13
2018-07-21T10:49:49.492Z,123.75
2018-07-21T10:50:49.564Z,123.75
2018-07-21T10:51:49.504Z,123.75
2018-07-21T10:52:49.507Z,129.38
2018-07-21T10:53:49.513Z,129.38
2018-07-21T10:54:49.516Z,129.38
2018-07-21T10:55:49.522Z,129.38
2018-07-21T10:56:49.536Z,129.38
2018-07-21T10:57:49.537Z,123.75
2018-07-21T10:58:49.538Z,123.75
2018-07-21T10:59:49.543Z,123.75
2018-07-21T11:00:49.550Z,123.75
2018-07-21T11:01:49.554Z,123.75
2018-07-21T11:02:49.604Z,123.75
2018-07-21T11:03:49.566Z,123.75
2018-07-21T11:04:49.578Z,123.75
2018-07-21T11:05:49.578Z,123.75
2018-07-21T11:06:49.579Z,123.75
2018-07-21T11:07:49.895Z,129.38
2018-07-21T11:08:49.592Z,129.38
2018-07-21T11:09:49.596Z,123.75
2018-07-21T11:10:49.601Z,123.75
2018-07-21T11:11:49.609Z,123.75
2018-07-21T11:12:49.846Z,123.75
2018-07-21T11:13:49.617Z,123.75
2018-07-21T11:14:49.672Z,123.75
2018-07-21T11:15:49.655Z,123.75
2018-07-21T11:16:49.711Z,123.75
2018-07-21T11:17:49.644Z,123.75
2018-07-21T11:18:49.664Z,123.75
2018-07-21T11:19:49.652Z,129.38
2018-07-21T11:20:49.748Z,135.00
2018-07-21T11:21:50.020Z,140.63
2018-07-21T11:22:49.679Z,140.63
2018-07-21T11:23:49.682Z,140.63
2018-07-21T11:24:49.681Z,140.63
2018-07-21T11:25:49.792Z,146.25
2018-07-21T11:26:49.682Z,146.25
2018-07-21T11:27:49.688Z,146.25
2018-07-21T11:28:49.743Z,151.88
2018-07-21T11:29:49.699Z,151.88
2018-07-21T11:30:49.711Z,151.88
2018-07-21T11:31:49.710Z,146.25
2018-07-21T11:32:49.715Z,146.25
2018-07-21T11:33:49.722Z,140.63
2018-07-21T11:34:49.724Z,140.63
2018-07-21T11:35:49.807Z,140.63
2018-07-21T11:36:49.740Z,140.63
2018-07-21T11:37:49.740Z,140.63
2018-07-21T11:38:49.971Z,146.25
2018-07-21T11:39:49.751Z,146.25
2018-07-21T11:40:49.759Z,146.25
2018-07-21T11:41:49.766Z,146.25
2018-07-21T11:42:49.768Z,146.25
2018-07-21T11:43:49.808Z,146.25
2018-07-21T11:44:49.777Z,146.25
2018-07-21T11:45:49.807Z,146.25
2018-07-21T11:46:49.834Z,146.25
2018-07-21T11:47:49.795Z,140.63
2018-07-21T11:48:49.822Z,140.63
2018-07-21T11:49:50.143Z,135.00
2018-07-21T11:50:49.811Z,129.38
2018-07-21T11:51:49.845Z,123.75
2018-07-21T11:52:49.821Z,118.13
2018-07-21T11:53:49.828Z,112.50
2018-07-21T11:54:49.837Z,112.50
2018-07-21T11:55:49.865Z,112.50
2018-07-21T11:56:49.844Z,106.88
2018-07-21T11:57:50.286Z,106.88
2018-07-21T11:58:50.005Z,95.63
2018-07-21T11:59:49.926Z,95.63
2018-07-21T12:00:49.873Z,90.00
2018-07-21T12:01:49.893Z,90.00
2018-07-21T12:02:50.152Z,84.38
2018-07-21T12:03:50.060Z,84.38
2018-07-21T12:04:49.903Z,84.38
2018-07-21T12:05:49.900Z,78.75
2018-07-21T12:06:49.930Z,78.75
2018-07-21T12:07:49.907Z,78.75
2018-07-21T12:08:49.965Z,78.75
2018-07-21T12:09:50.470Z,78.75
2018-07-21T12:10:49.932Z,78.75
2018-07-21T12:11:49.922Z,78.75
2018-07-21T12:12:49.971Z,73.13
2018-07-21T12:13:49.949Z,73.13
2018-07-21T12:14:50.072Z,73.13
2018-07-21T12:15:49.943Z,73.13
2018-07-21T12:16:50.076Z,73.13
2018-07-21T12:17:49.952Z,73.13
2018-07-21T12:18:49.970Z,73.13
2018-07-21T12:19:49.962Z,67.50
2018-07-21T12:20:50.000Z,67.50
2018-07-21T12:21:50.020Z,67.50
2018-07-21T12:22:49.980Z,67.50
2018-07-21T12:23:49.997Z,67.50
2018-07-21T12:24:49.987Z,67.50
2018-07-21T12:25:50.029Z,67.50
2018-07-21T12:26:50.000Z,67.50
2018-07-21T12:27:50.021Z,67.50
2018-07-21T12:28:50.012Z,67.50
2018-07-21T12:29:50.019Z,67.50
2018-07-21T12:30:50.022Z,67.50
2018-07-21T12:31:50.048Z,61.88
2018-07-21T12:32:50.027Z,61.88
2018-07-21T12:33:50.051Z,61.88
2018-07-21T12:34:50.042Z,61.88
2018-07-21T12:35:50.131Z,56.25
2018-07-21T12:36:50.052Z,56.25
2018-07-21T12:37:50.057Z,56.25
2018-07-21T12:38:50.057Z,56.25
2018-07-21T12:39:50.065Z,56.25
2018-07-21T12:40:50.862Z,50.63
2018-07-21T12:41:50.080Z,50.63
2018-07-21T12:42:50.080Z,50.63
2018-07-21T12:43:50.082Z,50.63
2018-07-21T12:44:50.101Z,45.00
2018-07-21T12:45:50.092Z,45.00
2018-07-21T12:46:50.309Z,45.00
2018-07-21T12:47:50.103Z,45.00